createdAt,value
2022-09-22T00:00:10.898Z,6.32
2022-09-22T00:01:13.489Z,6.31
2022-09-22T00:02:16.373Z,6.32
2022-09-22T00:03:18.877Z,6.33
2022-09-22T00:04:21.318Z,6.33
2022-09-22T00:05:23.796Z,6.33
2022-09-22T00:06:26.419Z,6.33
2022-09-22T00:07:28.860Z,6.32
2022-09-22T00:08:31.324Z,6.32
2022-09-22T00:09:33.798Z,6.33
2022-09-22T00:10:36.334Z,6.33
2022-09-22T00:11:38.818Z,6.32
2022-09-22T00:12:41.247Z,6.33
2022-09-22T00:13:43.710Z,6.32
2022-09-22T00:14:46.455Z,6.31
2022-09-22T00:15:48.887Z,6.30
2022-09-22T00:16:51.463Z,6.28
2022-09-22T00:17:53.934Z,6.28
2022-09-22T00:18:56.413Z,6.28
2022-09-22T00:19:58.846Z,6.28
2022-09-22T00:21:01.582Z,6.28
2022-09-22T00:22:04.087Z,6.26
2022-09-22T00:23:06.583Z,6.25
2022-09-22T00:24:09.047Z,6.25
2022-09-22T00:25:11.481Z,6.24
2022-09-22T00:26:14.221Z,6.27
2022-09-22T00:27:16.827Z,6.29
2022-09-22T00:28:19.335Z,6.28
2022-09-22T00:29:21.792Z,6.28
2022-09-22T00:30:24.329Z,6.28
2022-09-22T00:31:26.782Z,6.27
2022-09-22T00:32:29.287Z,6.24
2022-09-22T00:33:31.728Z,6.21
2022-09-22T00:34:34.166Z,6.19
2022-09-22T00:35:36.596Z,6.19
2022-09-22T00:36:39.163Z,6.20
2022-09-22T00:37:41.623Z,6.20
2022-09-22T00:38:44.080Z,6.21
2022-09-22T00:39:46.512Z,6.20
2022-09-22T00:40:49.156Z,6.22
2022-09-22T00:41:51.904Z,6.23
2022-09-22T00:42:54.427Z,6.25
2022-09-22T00:43:56.866Z,6.28
2022-09-22T00:44:59.314Z,6.30
2022-09-22T00:46:01.761Z,6.33
2022-09-22T00:47:04.290Z,6.37
2022-09-22T00:48:06.981Z,6.41
2022-09-22T00:49:09.424Z,6.44
2022-09-22T00:50:12.271Z,6.49
2022-09-22T00:51:14.921Z,6.50
2022-09-22T00:52:17.367Z,6.51
2022-09-22T00:53:19.840Z,6.53
2022-09-22T00:54:22.282Z,6.56
2022-09-22T00:55:24.720Z,6.59
2022-09-22T00:56:27.401Z,6.59
2022-09-22T00:57:29.872Z,6.59
2022-09-22T00:58:32.340Z,6.57
2022-09-22T00:59:34.804Z,6.55
2022-09-22T01:00:37.510Z,6.52
2022-09-22T01:01:40.185Z,6.49
2022-09-22T01:02:42.789Z,6.48
2022-09-22T01:03:45.324Z,6.47
2022-09-22T01:04:47.769Z,6.42
2022-09-22T01:05:50.215Z,6.40
2022-09-22T01:06:52.874Z,6.38
2022-09-22T01:07:55.322Z,6.33
2022-09-22T01:08:57.784Z,6.30
2022-09-22T01:10:00.237Z,6.26
2022-09-22T01:11:02.670Z,6.23
2022-09-22T01:12:05.144Z,6.19
2022-09-22T01:13:07.614Z,6.17
2022-09-22T01:14:10.088Z,6.14
2022-09-22T01:15:12.533Z,6.10
2022-09-22T01:16:15.859Z,6.09
2022-09-22T01:17:18.332Z,6.05
2022-09-22T01:18:20.775Z,5.98
2022-09-22T01:19:23.260Z,5.95
2022-09-22T01:20:25.988Z,5.92
2022-09-22T01:21:28.637Z,5.89
2022-09-22T01:22:31.108Z,5.83
2022-09-22T01:23:33.549Z,5.78
2022-09-22T01:24:36.026Z,5.76
2022-09-22T01:25:38.468Z,5.71
2022-09-22T01:26:41.113Z,5.69
2022-09-22T01:27:43.559Z,5.68
2022-09-22T01:28:46.015Z,5.67
2022-09-22T01:29:48.514Z,5.63
2022-09-22T01:30:51.376Z,5.60
2022-09-22T01:31:53.963Z,5.57
2022-09-22T01:32:56.512Z,5.53
2022-09-22T01:33:58.952Z,5.54
2022-09-22T01:35:01.951Z,5.52
2022-09-22T01:36:04.489Z,5.51
2022-09-22T01:37:06.969Z,5.52
2022-09-22T01:38:09.471Z,5.51
2022-09-22T01:39:11.914Z,5.52
2022-09-22T01:40:15.304Z,5.52
2022-09-22T01:41:17.813Z,5.49
2022-09-22T01:42:20.249Z,5.48
2022-09-22T01:43:22.709Z,5.50
2022-09-22T01:44:25.148Z,5.49
2022-09-22T01:45:27.642Z,5.51
2022-09-22T01:46:30.379Z,5.54
2022-09-22T01:47:32.861Z,5.55
2022-09-22T01:48:35.323Z,5.56
2022-09-22T01:49:37.763Z,5.56
2022-09-22T01:50:40.439Z,5.58
2022-09-22T01:51:43.241Z,5.58
2022-09-22T01:52:45.711Z,5.59
2022-09-22T01:53:48.179Z,5.59
2022-09-22T01:54:50.640Z,5.59
2022-09-22T01:55:53.162Z,5.61
2022-09-22T01:56:55.758Z,5.60
2022-09-22T01:57:58.331Z,5.62
2022-09-22T01:59:00.762Z,5.63
2022-09-22T02:00:03.414Z,5.63
2022-09-22T02:01:07.959Z,5.62
2022-09-22T02:02:10.513Z,5.61
2022-09-22T02:03:13.307Z,5.61
2022-09-22T02:04:15.749Z,5.58
2022-09-22T02:05:18.225Z,5.52
2022-09-22T02:06:21.011Z,5.54
2022-09-22T02:07:23.451Z,5.50
2022-09-22T02:08:25.895Z,5.49
2022-09-22T02:09:28.453Z,5.50
2022-09-22T02:10:31.222Z,5.48
2022-09-22T02:11:33.735Z,5.48
2022-09-22T02:12:36.150Z,5.47
2022-09-22T02:13:38.590Z,5.43
2022-09-22T02:14:41.034Z,5.42
2022-09-22T02:15:43.577Z,5.41
2022-09-22T02:16:46.555Z,5.40
2022-09-22T02:17:49.080Z,5.41
2022-09-22T02:18:51.527Z,5.43
2022-09-22T02:19:53.968Z,5.43
2022-09-22T02:20:56.541Z,5.43
2022-09-22T02:21:59.014Z,5.41
2022-09-22T02:23:01.451Z,5.42
2022-09-22T02:24:03.898Z,5.42
2022-09-22T02:25:06.349Z,5.42
2022-09-22T02:26:09.290Z,5.41
2022-09-22T02:27:11.774Z,5.40
2022-09-22T02:28:14.221Z,5.40
2022-09-22T02:29:16.676Z,5.41
2022-09-22T02:30:19.641Z,5.38
2022-09-22T02:31:22.158Z,5.36
2022-09-22T02:32:25.024Z,5.33
2022-09-22T02:33:27.462Z,5.32
2022-09-22T02:34:29.904Z,5.31
2022-09-22T02:35:32.345Z,5.31
2022-09-22T02:36:34.996Z,5.30
2022-09-22T02:37:37.474Z,5.28
2022-09-22T02:38:40.016Z,5.29
2022-09-22T02:39:42.458Z,5.29
2022-09-22T02:40:45.204Z,5.30
2022-09-22T02:41:47.746Z,5.31
2022-09-22T02:42:50.236Z,5.31
2022-09-22T02:43:52.675Z,5.31
2022-09-22T02:44:55.120Z,5.33
2022-09-22T02:45:57.909Z,5.33
2022-09-22T02:47:00.516Z,5.34
2022-09-22T02:48:03.014Z,5.33
2022-09-22T02:49:05.456Z,5.33
2022-09-22T02:50:08.511Z,5.33
2022-09-22T02:51:10.989Z,5.34
2022-09-22T02:52:13.447Z,5.36
2022-09-22T02:53:15.918Z,5.37
2022-09-22T02:54:18.391Z,5.37
2022-09-22T02:55:20.831Z,5.33
2022-09-22T02:56:23.606Z,5.35
2022-09-22T02:57:26.044Z,5.36
2022-09-22T02:58:28.520Z,5.38
2022-09-22T02:59:30.968Z,5.35
2022-09-22T03:00:33.605Z,5.36
2022-09-22T03:01:36.474Z,5.35
2022-09-22T03:02:39.051Z,5.35
2022-09-22T03:03:41.895Z,5.33
2022-09-22T03:04:44.411Z,5.32
2022-09-22T03:05:46.907Z,5.31
2022-09-22T03:06:49.503Z,5.30
2022-09-22T03:07:51.965Z,5.30
2022-09-22T03:08:54.465Z,5.30
2022-09-22T03:09:56.896Z,5.29
2022-09-22T03:10:59.451Z,5.29
2022-09-22T03:12:01.916Z,5.28
2022-09-22T03:13:19.696Z,5.30
2022-09-22T03:14:08.877Z,5.29
2022-09-22T03:15:11.647Z,5.28
2022-09-22T03:16:14.677Z,5.27
2022-09-22T03:17:17.174Z,5.26
2022-09-22T03:18:19.610Z,5.23
2022-09-22T03:19:22.090Z,5.22
2022-09-22T03:20:24.976Z,5.22
2022-09-22T03:21:27.631Z,5.21
2022-09-22T03:22:30.109Z,5.21
2022-09-22T03:23:32.559Z,5.20
2022-09-22T03:24:35.056Z,5.21
2022-09-22T03:25:37.505Z,5.22
2022-09-22T03:26:40.055Z,5.22
2022-09-22T03:27:42.504Z,5.22
2022-09-22T03:28:44.930Z,5.21
2022-09-22T03:29:47.399Z,5.19
2022-09-22T03:30:50.200Z,5.18
2022-09-22T03:31:52.803Z,5.18
2022-09-22T03:32:55.245Z,5.17
2022-09-22T03:33:57.679Z,5.17
2022-09-22T03:35:00.145Z,5.18
2022-09-22T03:36:03.158Z,5.17
2022-09-22T03:37:05.751Z,5.18
2022-09-22T03:38:08.266Z,5.19
2022-09-22T03:39:10.709Z,5.18
2022-09-22T03:40:14.052Z,5.17
2022-09-22T03:41:17.244Z,5.15
2022-09-22T03:42:19.787Z,5.14
2022-09-22T03:43:22.225Z,5.14
2022-09-22T03:44:24.682Z,5.14
2022-09-22T03:45:27.156Z,5.13
2022-09-22T03:46:29.962Z,5.15
2022-09-22T03:47:32.538Z,5.17
2022-09-22T03:48:35.298Z,5.20
2022-09-22T03:49:37.746Z,5.23
2022-09-22T03:50:40.311Z,5.33
2022-09-22T03:51:42.758Z,5.38
2022-09-22T03:52:45.227Z,5.37
2022-09-22T03:53:47.644Z,5.39
2022-09-22T03:54:50.109Z,5.39
2022-09-22T03:55:52.577Z,5.42
2022-09-22T03:56:55.315Z,5.45
2022-09-22T03:57:57.954Z,5.51
2022-09-22T03:59:00.402Z,5.56
2022-09-22T04:00:03.034Z,5.61
2022-09-22T04:01:05.540Z,5.67
2022-09-22T04:02:08.101Z,5.72
2022-09-22T04:03:10.653Z,5.80
2022-09-22T04:04:13.109Z,5.88
2022-09-22T04:05:15.744Z,5.96
2022-09-22T04:06:18.424Z,6.01
2022-09-22T04:07:20.869Z,6.08
2022-09-22T04:08:23.299Z,6.15
2022-09-22T04:09:25.738Z,6.23
2022-09-22T04:10:28.176Z,6.32
2022-09-22T04:11:30.647Z,6.41
2022-09-22T04:12:33.090Z,6.48
2022-09-22T04:13:35.541Z,6.57
2022-09-22T04:14:38.018Z,6.65
2022-09-22T04:15:40.462Z,6.72
2022-09-22T04:16:43.127Z,6.82
2022-09-22T04:17:45.675Z,6.95
2022-09-22T04:18:48.114Z,7.05
2022-09-22T04:19:50.563Z,7.15
2022-09-22T04:20:53.443Z,7.25
2022-09-22T04:21:57.315Z,7.35
2022-09-22T04:23:00.577Z,7.43
2022-09-22T04:24:03.025Z,7.54
2022-09-22T04:25:05.456Z,7.64
2022-09-22T04:26:08.198Z,7.74
2022-09-22T04:27:25.905Z,7.81
2022-09-22T04:28:15.013Z,7.86
2022-09-22T04:29:17.448Z,7.91
2022-09-22T04:30:20.077Z,7.97
2022-09-22T04:31:22.539Z,8.04
2022-09-22T04:32:25.249Z,8.10
2022-09-22T04:33:27.708Z,8.15
2022-09-22T04:34:30.194Z,8.21
2022-09-22T04:35:32.638Z,8.30
2022-09-22T04:36:35.174Z,8.39
2022-09-22T04:37:37.705Z,8.49
2022-09-22T04:38:40.161Z,8.58
2022-09-22T04:39:42.719Z,8.68
2022-09-22T04:40:45.276Z,8.80
2022-09-22T04:41:47.728Z,8.91
2022-09-22T04:42:50.454Z,9.01
2022-09-22T04:43:52.885Z,9.10
2022-09-22T04:44:55.426Z,9.20
2022-09-22T04:45:57.975Z,9.31
2022-09-22T04:47:00.690Z,9.41
2022-09-22T04:48:03.155Z,9.42
2022-09-22T04:49:05.616Z,9.49
2022-09-22T04:50:08.411Z,9.59
2022-09-22T04:51:10.906Z,9.70
2022-09-22T04:52:13.340Z,9.81
2022-09-22T04:53:15.847Z,9.93
2022-09-22T04:54:18.281Z,9.98
2022-09-22T04:55:20.730Z,10.09
2022-09-22T04:56:23.582Z,10.21
2022-09-22T04:57:26.028Z,10.24
2022-09-22T04:58:28.493Z,10.32
2022-09-22T04:59:30.929Z,10.33
2022-09-22T05:00:33.367Z,10.32
2022-09-22T05:01:35.879Z,10.36
2022-09-22T05:02:38.537Z,10.36
2022-09-22T05:03:41.054Z,10.41
2022-09-22T05:04:43.601Z,10.38
2022-09-22T05:05:46.057Z,10.44
2022-09-22T05:06:48.598Z,10.53
2022-09-22T05:07:51.345Z,10.54
2022-09-22T05:08:53.858Z,10.63
2022-09-22T05:09:56.306Z,10.74
2022-09-22T05:10:59.001Z,10.92
2022-09-22T05:12:01.503Z,10.98
2022-09-22T05:13:04.249Z,11.05
2022-09-22T05:14:06.711Z,11.16
2022-09-22T05:15:09.356Z,11.28
2022-09-22T05:16:13.698Z,11.39
2022-09-22T05:17:16.189Z,11.44
2022-09-22T05:18:18.627Z,11.55
2022-09-22T05:19:21.155Z,11.64
2022-09-22T05:20:23.930Z,11.76
2022-09-22T05:21:26.588Z,11.87
2022-09-22T05:22:29.395Z,11.90
2022-09-22T05:23:31.839Z,11.97
2022-09-22T05:24:34.314Z,12.06
2022-09-22T05:25:36.786Z,12.11
2022-09-22T05:26:39.323Z,12.15
2022-09-22T05:27:41.967Z,12.20
2022-09-22T05:28:44.425Z,12.25
2022-09-22T05:29:46.917Z,12.31
2022-09-22T05:30:49.689Z,12.45
2022-09-22T05:31:52.184Z,12.47
2022-09-22T05:32:54.611Z,12.56
2022-09-22T05:33:57.130Z,12.64
2022-09-22T05:34:59.608Z,12.74
2022-09-22T05:36:02.051Z,12.81
2022-09-22T05:37:04.513Z,12.82
2022-09-22T05:38:07.102Z,12.94
2022-09-22T05:39:09.547Z,13.01
2022-09-22T05:40:12.335Z,13.03
2022-09-22T05:41:14.871Z,13.05
2022-09-22T05:42:17.337Z,13.15
2022-09-22T05:43:19.777Z,13.29
2022-09-22T05:44:22.272Z,13.41
2022-09-22T05:45:24.800Z,13.46
2022-09-22T05:46:27.619Z,13.55
2022-09-22T05:47:30.103Z,13.62
2022-09-22T05:48:32.547Z,13.70
2022-09-22T05:49:34.990Z,13.80
2022-09-22T05:50:37.701Z,13.89
2022-09-22T05:51:40.144Z,13.87
2022-09-22T05:52:42.599Z,13.95
2022-09-22T05:53:45.038Z,14.05
2022-09-22T05:54:47.481Z,14.17
2022-09-22T05:55:49.983Z,14.23
2022-09-22T05:56:52.437Z,14.31
2022-09-22T05:57:54.894Z,14.35
2022-09-22T05:58:57.340Z,14.37
2022-09-22T05:59:59.791Z,14.40
2022-09-22T06:01:02.356Z,14.40
2022-09-22T06:02:18.073Z,14.37
2022-09-22T06:03:09.358Z,14.33
2022-09-22T06:04:11.831Z,14.42
2022-09-22T06:05:17.361Z,14.60
2022-09-22T06:06:18.878Z,14.64
2022-09-22T06:07:21.352Z,14.65
2022-09-22T06:08:23.874Z,14.79
2022-09-22T06:09:26.363Z,14.89
2022-09-22T06:10:28.798Z,14.94
2022-09-22T06:11:31.280Z,15.06
2022-09-22T06:12:33.729Z,15.18
2022-09-22T06:13:36.170Z,15.26
2022-09-22T06:14:38.622Z,15.37
2022-09-22T06:15:41.067Z,15.31
2022-09-22T06:16:43.903Z,15.35
2022-09-22T06:17:46.409Z,15.51
2022-09-22T06:18:48.857Z,15.59
2022-09-22T06:19:51.296Z,15.70
2022-09-22T06:20:53.854Z,15.83
2022-09-22T06:21:56.351Z,15.97
2022-09-22T06:22:58.791Z,16.11
2022-09-22T06:24:01.246Z,16.24
2022-09-22T06:25:03.704Z,16.29
2022-09-22T06:26:06.866Z,16.46
2022-09-22T06:27:09.361Z,16.52
2022-09-22T06:28:11.845Z,16.66
2022-09-22T06:29:14.288Z,16.84
2022-09-22T06:30:17.851Z,16.93
2022-09-22T06:31:20.349Z,16.67
2022-09-22T06:32:22.900Z,16.38
2022-09-22T06:33:25.339Z,16.56
2022-09-22T06:34:27.784Z,16.77
2022-09-22T06:35:30.231Z,16.87
2022-09-22T06:36:32.978Z,17.04
2022-09-22T06:37:35.480Z,17.15
2022-09-22T06:38:37.923Z,17.20
2022-09-22T06:39:40.510Z,17.22
2022-09-22T06:40:43.423Z,17.30
2022-09-22T06:41:46.010Z,17.35
2022-09-22T06:42:48.490Z,17.33
2022-09-22T06:43:50.947Z,17.44
2022-09-22T06:44:53.421Z,17.54
2022-09-22T06:45:55.930Z,17.69
2022-09-22T06:46:58.716Z,17.84
2022-09-22T06:48:01.223Z,17.92
2022-09-22T06:49:03.725Z,17.94
2022-09-22T06:50:06.484Z,18.08
2022-09-22T06:51:11.840Z,18.28
2022-09-22T06:52:13.309Z,18.41
2022-09-22T06:53:15.926Z,18.40
2022-09-22T06:54:18.711Z,18.50
2022-09-22T06:55:21.983Z,18.53
2022-09-22T06:56:24.463Z,18.58
2022-09-22T06:57:26.934Z,18.63
2022-09-22T06:58:29.400Z,18.74
2022-09-22T06:59:31.851Z,18.67
2022-09-22T07:00:34.770Z,18.79
2022-09-22T07:01:37.832Z,18.80
2022-09-22T07:02:40.603Z,18.50
2022-09-22T07:03:43.126Z,18.25
2022-09-22T07:04:45.562Z,18.19
2022-09-22T07:05:48.108Z,18.26
2022-09-22T07:06:50.660Z,18.38
2022-09-22T07:07:53.113Z,18.43
2022-09-22T07:08:55.696Z,18.58
2022-09-22T07:09:58.344Z,18.72
2022-09-22T07:11:01.004Z,18.92
2022-09-22T07:12:03.442Z,19.17
2022-09-22T07:13:05.900Z,19.32
2022-09-22T07:14:08.536Z,19.47
2022-09-22T07:15:11.490Z,19.51
2022-09-22T07:16:14.779Z,19.66
2022-09-22T07:17:17.297Z,19.82
2022-09-22T07:18:19.743Z,19.72
2022-09-22T07:19:22.227Z,19.39
2022-09-22T07:20:24.779Z,19.69
2022-09-22T07:21:27.297Z,19.66
2022-09-22T07:22:30.178Z,19.92
2022-09-22T07:23:50.978Z,19.92
2022-09-22T07:24:53.524Z,20.23
2022-09-22T07:25:56.148Z,20.32
2022-09-22T07:26:58.919Z,20.50
2022-09-22T07:28:01.418Z,20.73
2022-09-22T07:29:03.985Z,20.86
2022-09-22T07:30:06.973Z,21.08
2022-09-22T07:31:09.451Z,21.01
2022-09-22T07:32:12.067Z,21.19
2022-09-22T07:33:14.687Z,21.06
2022-09-22T07:34:17.139Z,20.76
2022-09-22T07:35:19.662Z,20.96
2022-09-22T07:36:22.908Z,20.99
2022-09-22T07:37:25.397Z,21.09
2022-09-22T07:38:27.854Z,21.25
2022-09-22T07:39:30.303Z,21.20
2022-09-22T07:40:33.032Z,21.48
2022-09-22T07:41:35.529Z,21.71
2022-09-22T07:42:38.017Z,21.85
2022-09-22T07:43:40.833Z,21.78
2022-09-22T07:44:44.693Z,21.48
2022-09-22T07:45:47.649Z,21.46
2022-09-22T07:46:50.297Z,21.53
2022-09-22T07:47:52.972Z,21.83
2022-09-22T07:48:55.412Z,21.12
2022-09-22T07:49:57.863Z,21.31
2022-09-22T07:51:00.660Z,21.31
2022-09-22T07:52:03.250Z,20.94
2022-09-22T07:53:05.711Z,21.31
2022-09-22T07:54:08.197Z,21.42
2022-09-22T07:55:10.653Z,21.11
2022-09-22T07:56:13.342Z,21.27
2022-09-22T07:57:15.813Z,21.18
2022-09-22T07:58:18.265Z,20.77
2022-09-22T07:59:20.719Z,20.19
2022-09-22T08:00:23.497Z,20.45
2022-09-22T08:01:26.031Z,20.38
2022-09-22T08:02:28.514Z,20.59
2022-09-22T08:03:31.031Z,20.77
2022-09-22T08:04:33.504Z,21.19
2022-09-22T08:05:35.958Z,21.29
2022-09-22T08:06:38.809Z,21.04
2022-09-22T08:07:41.266Z,21.02
2022-09-22T08:08:43.730Z,21.34
2022-09-22T08:09:46.195Z,21.46
2022-09-22T08:10:48.848Z,21.39
2022-09-22T08:11:51.351Z,21.48
2022-09-22T08:12:53.812Z,21.50
2022-09-22T08:13:56.267Z,21.26
2022-09-22T08:14:58.744Z,21.38
2022-09-22T08:16:01.262Z,21.65
2022-09-22T08:17:04.033Z,21.64
2022-09-22T08:18:06.485Z,21.80
2022-09-22T08:19:08.999Z,21.67
2022-09-22T08:20:13.273Z,21.69
2022-09-22T08:21:16.173Z,21.82
2022-09-22T08:22:18.673Z,21.57
2022-09-22T08:23:21.135Z,21.95
2022-09-22T08:24:24.077Z,22.14
2022-09-22T08:25:26.855Z,22.26
2022-09-22T08:26:29.522Z,22.09
2022-09-22T08:27:32.051Z,21.90
2022-09-22T08:28:34.771Z,22.21
2022-09-22T08:29:37.247Z,22.51
2022-09-22T08:30:39.774Z,22.89
2022-09-22T08:31:42.299Z,23.32
2022-09-22T08:32:44.846Z,23.63
2022-09-22T08:33:47.318Z,23.55
2022-09-22T08:34:49.794Z,23.64
2022-09-22T08:35:52.297Z,23.92
2022-09-22T08:36:54.964Z,23.43
2022-09-22T08:37:57.458Z,23.27
2022-09-22T08:38:59.955Z,23.68
2022-09-22T08:40:03.054Z,24.14
2022-09-22T08:41:05.592Z,24.50
2022-09-22T08:42:08.336Z,24.83
2022-09-22T08:43:10.969Z,25.10
2022-09-22T08:44:13.444Z,25.23
2022-09-22T08:45:15.912Z,25.42
2022-09-22T08:46:18.791Z,25.52
2022-09-22T08:47:21.561Z,25.63
2022-09-22T08:48:24.075Z,25.72
2022-09-22T08:49:26.528Z,25.64
2022-09-22T08:50:29.091Z,25.50
2022-09-22T08:51:31.708Z,25.61
2022-09-22T08:52:34.185Z,25.58
2022-09-22T08:53:36.665Z,25.62
2022-09-22T08:54:39.157Z,25.76
2022-09-22T08:55:41.747Z,25.83
2022-09-22T08:56:44.521Z,25.86
2022-09-22T08:57:46.977Z,25.73
2022-09-22T08:58:49.494Z,25.71
2022-09-22T08:59:51.962Z,25.80
2022-09-22T09:00:54.833Z,25.68
2022-09-22T09:01:57.313Z,25.55
2022-09-22T09:04:02.610Z,25.14
2022-09-22T09:05:05.218Z,24.47
2022-09-22T09:06:08.495Z,24.45
2022-09-22T09:07:10.955Z,24.56
2022-09-22T09:08:13.420Z,24.53
2022-09-22T09:09:15.920Z,24.50
2022-09-22T09:10:18.613Z,24.50
2022-09-22T09:11:21.091Z,24.48
2022-09-22T09:12:23.578Z,24.34
2022-09-22T09:13:26.049Z,24.14
2022-09-22T09:14:28.558Z,23.96
2022-09-22T09:15:31.015Z,23.81
2022-09-22T09:16:37.158Z,23.66
2022-09-22T09:17:38.075Z,23.48
2022-09-22T09:18:40.547Z,23.41
2022-09-22T09:19:43.033Z,23.34
2022-09-22T09:20:45.587Z,23.43
2022-09-22T09:21:48.041Z,23.46
2022-09-22T09:22:50.506Z,23.55
2022-09-22T09:26:01.943Z,23.76
2022-09-22T09:27:04.409Z,23.77
2022-09-22T09:28:06.936Z,23.88
2022-09-22T09:29:09.589Z,23.99
2022-09-22T09:30:13.011Z,24.01
2022-09-22T09:31:15.548Z,23.93
2022-09-22T09:32:18.052Z,23.99
2022-09-22T09:33:20.526Z,24.06
2022-09-22T09:34:22.981Z,23.99
2022-09-22T09:35:25.466Z,23.91
2022-09-22T09:36:28.337Z,23.92
2022-09-22T09:37:30.799Z,23.95
2022-09-22T09:38:33.246Z,24.05
2022-09-22T09:39:35.697Z,24.20
2022-09-22T09:40:38.534Z,24.24
2022-09-22T09:41:41.074Z,24.41
2022-09-22T09:42:43.536Z,24.17
2022-09-22T09:43:46.002Z,24.09
2022-09-22T09:44:48.469Z,23.83
2022-09-22T09:45:51.006Z,23.74
2022-09-22T09:46:53.466Z,23.67
2022-09-22T09:47:59.848Z,23.51
2022-09-22T09:49:01.255Z,23.79
2022-09-22T09:50:04.021Z,24.09
2022-09-22T09:51:06.551Z,24.38
2022-09-22T09:52:09.020Z,24.52
2022-09-22T09:53:11.501Z,24.67
2022-09-22T09:54:16.985Z,24.78
2022-09-22T09:55:18.344Z,24.89
2022-09-22T09:56:21.257Z,24.68
2022-09-22T09:57:27.698Z,24.63
2022-09-22T09:58:28.098Z,24.97
2022-09-22T09:59:30.574Z,25.24
2022-09-22T10:00:33.148Z,25.31
2022-09-22T10:01:35.798Z,25.27
2022-09-22T10:02:38.344Z,25.28
2022-09-22T10:03:41.302Z,25.42
2022-09-22T10:04:44.061Z,25.58
2022-09-22T10:05:46.530Z,25.68
2022-09-22T10:06:49.135Z,25.74
2022-09-22T10:07:51.597Z,25.76
2022-09-22T10:08:54.073Z,25.90
2022-09-22T10:09:56.639Z,26.09
2022-09-22T10:10:59.213Z,26.13
2022-09-22T10:12:01.718Z,26.19
2022-09-22T10:13:04.203Z,26.31
2022-09-22T10:14:06.681Z,26.38
2022-09-22T10:15:09.180Z,26.30
2022-09-22T10:16:12.620Z,26.12
2022-09-22T10:17:15.188Z,26.03
2022-09-22T10:18:17.659Z,25.92
2022-09-22T10:19:20.135Z,25.69
2022-09-22T10:20:22.890Z,25.50
2022-09-22T10:21:25.604Z,25.45
2022-09-22T10:22:28.248Z,25.37
2022-09-22T10:24:33.228Z,25.27
2022-09-22T10:25:35.703Z,25.09
2022-09-22T10:26:38.269Z,25.10
2022-09-22T10:27:40.759Z,24.93
2022-09-22T10:28:43.286Z,24.91
2022-09-22T10:29:45.748Z,25.08
2022-09-22T10:30:48.441Z,25.15
2022-09-22T10:31:50.938Z,25.23
2022-09-22T10:33:56.345Z,25.44
2022-09-22T10:34:58.807Z,25.49
2022-09-22T10:36:01.275Z,25.67
2022-09-22T10:37:03.745Z,25.81
2022-09-22T10:38:06.246Z,25.87
2022-09-22T10:39:08.785Z,25.97
2022-09-22T10:40:12.509Z,25.99
2022-09-22T10:41:15.726Z,25.74
2022-09-22T10:42:18.196Z,25.88
2022-09-22T10:43:20.711Z,25.45
2022-09-22T10:44:41.887Z,25.47
2022-09-22T10:45:27.811Z,25.52
2022-09-22T10:46:30.348Z,25.63
2022-09-22T10:47:32.903Z,25.57
2022-09-22T10:48:35.401Z,25.42
2022-09-22T10:49:37.870Z,25.10
2022-09-22T10:50:40.663Z,24.87
2022-09-22T10:51:43.170Z,24.91
2022-09-22T10:52:45.675Z,24.91
2022-09-22T10:53:48.204Z,24.80
2022-09-22T10:54:50.667Z,25.00
2022-09-22T10:55:53.128Z,24.94
2022-09-22T10:56:55.699Z,24.49
2022-09-22T10:57:58.291Z,24.26
2022-09-22T10:59:00.912Z,24.25
2022-09-22T11:00:03.380Z,23.85
2022-09-22T11:01:05.941Z,23.61
2022-09-22T11:02:08.609Z,23.52
2022-09-22T11:03:11.078Z,23.47
2022-09-22T11:04:13.649Z,23.56
2022-09-22T11:05:16.482Z,23.66
2022-09-22T11:06:19.144Z,23.51
2022-09-22T11:07:21.602Z,23.60
2022-09-22T11:08:24.443Z,23.76
2022-09-22T11:09:27.094Z,23.83
2022-09-22T11:10:29.862Z,24.08
2022-09-22T11:11:33.617Z,24.42
2022-09-22T11:12:36.704Z,24.56
2022-09-22T11:13:39.163Z,24.85
2022-09-22T11:14:42.033Z,25.16
2022-09-22T11:15:44.540Z,25.39
2022-09-22T11:16:47.387Z,25.60
2022-09-22T11:17:49.865Z,25.86
2022-09-22T11:18:52.329Z,26.06
2022-09-22T11:19:54.838Z,26.26
2022-09-22T11:20:57.743Z,26.51
2022-09-22T11:22:00.215Z,26.73
2022-09-22T11:23:02.767Z,26.99
2022-09-22T11:24:05.230Z,27.04
2022-09-22T11:25:07.729Z,27.20
2022-09-22T11:26:11.155Z,27.29
2022-09-22T11:27:13.629Z,27.26
2022-09-22T11:28:16.089Z,27.41
2022-09-22T11:29:18.563Z,27.49
2022-09-22T11:30:21.179Z,27.24
2022-09-22T11:31:23.645Z,26.98
2022-09-22T11:32:26.119Z,27.00
2022-09-22T11:33:28.632Z,26.14
2022-09-22T11:34:31.093Z,25.48
2022-09-22T11:35:33.703Z,25.95
2022-09-22T11:36:36.569Z,26.35
2022-09-22T11:37:39.045Z,26.44
2022-09-22T11:38:41.823Z,26.35
2022-09-22T11:39:44.293Z,26.73
2022-09-22T11:40:47.050Z,26.95
2022-09-22T11:41:49.859Z,26.97
2022-09-22T11:42:52.337Z,26.87
2022-09-22T11:43:57.102Z,26.83
2022-09-22T11:44:59.194Z,26.78
2022-09-22T11:46:01.724Z,26.53
2022-09-22T11:47:04.263Z,26.66
2022-09-22T11:48:06.720Z,26.88
2022-09-22T11:49:09.214Z,27.16
2022-09-22T11:50:12.791Z,27.21
2022-09-22T11:51:15.319Z,26.70
2022-09-22T11:52:17.829Z,26.78
2022-09-22T11:53:20.364Z,26.91
2022-09-22T11:54:22.832Z,27.02
2022-09-22T11:55:25.330Z,27.06
2022-09-22T11:56:27.991Z,27.01
2022-09-22T11:57:30.447Z,27.04
2022-09-22T11:58:32.935Z,27.12
2022-09-22T11:59:35.413Z,27.01
2022-09-22T12:00:38.255Z,27.22
2022-09-22T12:01:40.959Z,27.28
2022-09-22T12:02:43.540Z,27.43
2022-09-22T12:03:46.664Z,27.59
2022-09-22T12:04:49.259Z,27.41
2022-09-22T12:05:51.737Z,27.16
2022-09-22T12:06:54.642Z,27.16
2022-09-22T12:07:57.105Z,26.69
2022-09-22T12:08:59.571Z,26.28
2022-09-22T12:10:02.022Z,26.30
2022-09-22T12:11:04.841Z,25.83
2022-09-22T12:12:07.390Z,25.49
2022-09-22T12:13:09.851Z,25.31
2022-09-22T12:14:12.303Z,25.19
2022-09-22T12:15:14.752Z,25.10
2022-09-22T12:16:18.118Z,24.88
2022-09-22T12:17:22.945Z,24.72
2022-09-22T12:18:25.122Z,24.58
2022-09-22T12:19:27.575Z,24.35
2022-09-22T12:20:30.139Z,24.07
2022-09-22T12:21:32.585Z,23.86
2022-09-22T12:22:35.111Z,23.73
2022-09-22T12:23:37.570Z,23.54
2022-09-22T12:24:40.065Z,23.25
2022-09-22T12:25:48.741Z,22.99
2022-09-22T12:26:47.132Z,22.62
2022-09-22T12:27:49.620Z,22.40
2022-09-22T12:28:52.273Z,22.26
2022-09-22T12:29:54.721Z,22.02
2022-09-22T12:30:57.344Z,21.65
2022-09-22T12:31:59.960Z,21.41
2022-09-22T12:33:02.457Z,21.23
2022-09-22T12:34:04.982Z,21.19
2022-09-22T12:35:07.480Z,21.10
2022-09-22T12:36:10.547Z,21.04
2022-09-22T12:37:13.052Z,21.03
2022-09-22T12:38:15.598Z,20.99
2022-09-22T12:39:18.078Z,20.99
2022-09-22T12:40:20.962Z,20.99
2022-09-22T12:41:23.550Z,20.99
2022-09-22T12:42:26.206Z,20.94
2022-09-22T12:43:28.751Z,20.95
2022-09-22T12:44:31.208Z,20.87
2022-09-22T12:45:33.684Z,20.82
2022-09-22T12:46:36.256Z,20.75
2022-09-22T12:47:38.740Z,20.76
2022-09-22T12:48:41.241Z,20.77
2022-09-22T12:49:43.805Z,20.71
2022-09-22T12:50:46.425Z,20.69
2022-09-22T12:51:48.894Z,20.67
2022-09-22T12:52:51.356Z,20.67
2022-09-22T12:53:53.884Z,20.63
2022-09-22T12:54:56.355Z,20.59
2022-09-22T12:55:58.811Z,20.52
2022-09-22T12:57:01.533Z,20.50
2022-09-22T12:58:04.157Z,20.52
2022-09-22T12:59:06.763Z,20.48
2022-09-22T13:00:10.133Z,20.44
2022-09-22T13:01:12.649Z,20.40
2022-09-22T13:02:15.196Z,20.38
2022-09-22T13:03:17.813Z,20.34
2022-09-22T13:04:20.300Z,20.34
2022-09-22T13:05:22.880Z,20.30
2022-09-22T13:06:25.439Z,20.33
2022-09-22T13:07:27.895Z,20.29
2022-09-22T13:08:30.363Z,20.26
2022-09-22T13:09:32.908Z,20.25
2022-09-22T13:10:35.567Z,20.19
2022-09-22T13:11:38.099Z,20.10
2022-09-22T13:12:40.566Z,20.07
2022-09-22T13:13:43.022Z,20.01
2022-09-22T13:14:45.502Z,19.96
2022-09-22T13:15:47.965Z,19.89
2022-09-22T13:16:50.653Z,19.82
2022-09-22T13:17:53.303Z,19.78
2022-09-22T13:18:55.774Z,19.75
2022-09-22T13:19:58.281Z,19.71
2022-09-22T13:21:01.055Z,19.67
2022-09-22T13:22:03.555Z,19.61
2022-09-22T13:23:06.011Z,19.58
2022-09-22T13:24:08.476Z,19.54
2022-09-22T13:25:10.973Z,19.49
2022-09-22T13:26:14.048Z,19.44
2022-09-22T13:27:16.497Z,19.39
2022-09-22T13:28:19.016Z,19.33
2022-09-22T13:29:21.467Z,19.30
2022-09-22T13:30:24.503Z,19.28
2022-09-22T13:31:27.001Z,19.21
2022-09-22T13:32:29.459Z,19.13
2022-09-22T13:33:31.920Z,19.08
2022-09-22T13:34:34.384Z,19.05
2022-09-22T13:35:36.940Z,19.00
2022-09-22T13:36:39.816Z,18.94
2022-09-22T13:37:42.379Z,18.90
2022-09-22T13:38:44.843Z,18.86
2022-09-22T13:39:47.879Z,18.82
2022-09-22T13:40:51.031Z,18.76